sensor_id;sensor_type;location;lat;lon;timestamp;pressure;altitude;pressure_sealevel;temperature;humidity
74921;BME280;63483;47.384;8.860;2023-11-18T00:01:45;95472.47;;;3.74;53.06
74921;BME280;63483;47.384;8.860;2023-11-18T00:04:11;95470.59;;;3.76;52.95
74921;BME280;63483;47.384;8.860;2023-11-18T00:06:44;95470.47;;;3.77;52.64
74921;BME280;63483;47.384;8.860;2023-11-18T00:09:13;95468.69;;;3.78;52.93
74921;BME280;63483;47.384;8.860;2023-11-18T00:11:40;95467.06;;;3.77;52.75
74921;BME280;63483;47.384;8.860;2023-11-18T00:14:06;95460.22;;;3.76;52.90
74921;BME280;63483;47.384;8.860;2023-11-18T00:16:32;95462.69;;;3.77;53.17
74921;BME280;63483;47.384;8.860;2023-11-18T00:18:57;95464.47;;;3.77;52.74
74921;BME280;63483;47.384;8.860;2023-11-18T00:21:24;95465.28;;;3.77;53.00
74921;BME280;63483;47.384;8.860;2023-11-18T00:23:49;95464.47;;;3.77;52.83
74921;BME280;63483;47.384;8.860;2023-11-18T00:26:14;95473.88;;;3.78;52.96
74921;BME280;63483;47.384;8.860;2023-11-18T00:28:40;95470.34;;;3.79;53.07
74921;BME280;63483;47.384;8.860;2023-11-18T00:31:05;95459.97;;;3.79;52.96
74921;BME280;63483;47.384;8.860;2023-11-18T00:33:31;95459.16;;;3.78;53.06
74921;BME280;63483;47.384;8.860;2023-11-18T00:35:57;95460.09;;;3.77;53.26
74921;BME280;63483;47.384;8.860;2023-11-18T00:38:22;95461.88;;;3.77;53.04
74921;BME280;63483;47.384;8.860;2023-11-18T00:40:47;95457.41;;;3.79;53.22
74921;BME280;63483;47.384;8.860;2023-11-18T00:43:13;95465.16;;;3.79;52.90
74921;BME280;63483;47.384;8.860;2023-11-18T00:45:38;95465.16;;;3.79;53.06
74921;BME280;63483;47.384;8.860;2023-11-18T00:48:04;95454.81;;;3.79;53.05
74921;BME280;63483;47.384;8.860;2023-11-18T00:50:30;95459.97;;;3.79;53.14
74921;BME280;63483;47.384;8.860;2023-11-18T00:52:56;95461.66;;;3.80;52.95
74921;BME280;63483;47.384;8.860;2023-11-18T00:55:21;95466.81;;;3.80;53.46
74921;BME280;63483;47.384;8.860;2023-11-18T00:57:47;95467.63;;;3.80;53.12
74921;BME280;63483;47.384;8.860;2023-11-18T01:00:13;95476.38;;;3.79;52.90
74921;BME280;63483;47.384;8.860;2023-11-18T01:02:40;95472.25;;;3.77;52.94
74921;BME280;63483;47.384;8.860;2023-11-18T01:05:06;95469.66;;;3.77;53.13
74921;BME280;63483;47.384;8.860;2023-11-18T01:07:32;95474.97;;;3.75;53.01
74921;BME280;63483;47.384;8.860;2023-11-18T01:09:57;95470.59;;;3.76;53.03
74921;BME280;63483;47.384;8.860;2023-11-18T01:12:23;95468.94;;;3.75;52.78
74921;BME280;63483;47.384;8.860;2023-11-18T01:14:48;95482.63;;;3.77;53.05
74921;BME280;63483;47.384;8.860;2023-11-18T01:17:13;95480.94;;;3.76;52.71
74921;BME280;63483;47.384;8.860;2023-11-18T01:19:39;95473.88;;;3.78;53.09
74921;BME280;63483;47.384;8.860;2023-11-18T01:22:04;95478.84;;;3.69;52.91
74921;BME280;63483;47.384;8.860;2023-11-18T01:24:31;95475.75;;;2.34;48.59
74921;BME280;63483;47.384;8.860;2023-11-18T01:26:57;95477.00;;;1.52;49.12
74921;BME280;63483;47.384;8.860;2023-11-18T01:29:24;95470.19;;;0.85;49.17
74921;BME280;63483;47.384;8.860;2023-11-18T01:31:49;95474.84;;;0.53;51.58
74921;BME280;63483;47.384;8.860;2023-11-18T01:34:14;95474.28;;;0.20;49.98
74921;BME280;63483;47.384;8.860;2023-11-18T01:36:40;95480.97;;;-0.19;50.13
74921;BME280;63483;47.384;8.860;2023-11-18T01:39:05;95478.75;;;-0.54;50.67
74921;BME280;63483;47.384;8.860;2023-11-18T01:41:32;95482.25;;;-0.69;50.45
74921;BME280;63483;47.384;8.860;2023-11-18T01:43:58;95490.66;;;-0.81;51.13
74921;BME280;63483;47.384;8.860;2023-11-18T01:46:24;95491.25;;;-0.33;53.88
74921;BME280;63483;47.384;8.860;2023-11-18T01:48:50;95487.56;;;-0.58;61.64
74921;BME280;63483;47.384;8.860;2023-11-18T01:51:16;95495.50;;;-0.91;55.14
74921;BME280;63483;47.384;8.860;2023-11-18T01:53:47;95491.09;;;-1.20;54.27
74921;BME280;63483;47.384;8.860;2023-11-18T01:56:12;95500.88;;;-1.42;54.33
74921;BME280;63483;47.384;8.860;2023-11-18T01:58:40;95497.34;;;-1.56;54.22
74921;BME280;63483;47.384;8.860;2023-11-18T02:01:06;95496.53;;;-1.72;54.04
74921;BME280;63483;47.384;8.860;2023-11-18T02:03:34;95493.72;;;-1.83;54.55
74921;BME280;63483;47.384;8.860;2023-11-18T02:06:00;95494.63;;;-1.84;54.73
74921;BME280;63483;47.384;8.860;2023-11-18T02:08:25;95500.75;;;-1.87;53.98
74921;BME280;63483;47.384;8.860;2023-11-18T02:11:05;95490.78;;;-1.61;53.08
74921;BME280;63483;47.384;8.860;2023-11-18T02:13:38;95493.13;;;-1.57;51.82
74921;BME280;63483;47.384;8.860;2023-11-18T02:16:07;95491.47;;;-1.58;51.18
74921;BME280;63483;47.384;8.860;2023-11-18T02:18:33;95490.16;;;-1.65;51.60
74921;BME280;63483;47.384;8.860;2023-11-18T02:21:00;95478.78;;;-1.61;50.39
74921;BME280;63483;47.384;8.860;2023-11-18T02:23:26;95485.16;;;-1.36;49.45
74921;BME280;63483;47.384;8.860;2023-11-18T02:25:52;95466.69;;;-1.12;48.13
74921;BME280;63483;47.384;8.860;2023-11-18T02:28:18;95469.13;;;-0.95;49.04
74921;BME280;63483;47.384;8.860;2023-11-18T02:30:45;95454.81;;;-0.85;46.83
74921;BME280;63483;47.384;8.860;2023-11-18T02:33:29;95456.50;;;-0.55;49.19
74921;BME280;63483;47.384;8.860;2023-11-18T02:36:20;95452.34;;;-0.14;53.24
74921;BME280;63483;47.384;8.860;2023-11-18T02:38:50;95461.41;;;0.20;53.13
74921;BME280;63483;47.384;8.860;2023-11-18T02:41:16;95447.59;;;0.49;53.38
74921;BME280;63483;47.384;8.860;2023-11-18T02:43:44;95457.16;;;0.74;52.78
74921;BME280;63483;47.384;8.860;2023-11-18T02:46:10;95450.63;;;0.96;53.44
74921;BME280;63483;47.384;8.860;2023-11-18T02:48:38;95456.41;;;1.12;53.56
74921;BME280;63483;47.384;8.860;2023-11-18T02:51:04;95447.75;;;1.26;53.69
74921;BME280;63483;47.384;8.860;2023-11-18T02:53:29;95451.19;;;1.39;53.25
74921;BME280;63483;47.384;8.860;2023-11-18T02:55:55;95464.31;;;1.49;52.83
74921;BME280;63483;47.384;8.860;2023-11-18T02:58:27;95457.69;;;1.58;53.29
74921;BME280;63483;47.384;8.860;2023-11-18T03:00:53;95461.63;;;1.64;52.66
74921;BME280;63483;47.384;8.860;2023-11-18T03:03:18;95453.34;;;1.71;52.85
74921;BME280;63483;47.384;8.860;2023-11-18T03:05:45;95456.47;;;1.76;53.06
74921;BME280;63483;47.384;8.860;2023-11-18T03:08:10;95455.28;;;1.81;52.61
74921;BME280;63483;47.384;8.860;2023-11-18T03:10:36;95452.38;;;1.85;52.54
74921;BME280;63483;47.384;8.860;2023-11-18T03:13:02;95456.41;;;1.89;52.49
74921;BME280;63483;47.384;8.860;2023-11-18T03:15:28;95456.94;;;1.94;51.86
74921;BME280;63483;47.384;8.860;2023-11-18T03:17:54;95457.44;;;2.00;51.97
74921;BME280;63483;47.384;8.860;2023-11-18T03:20:21;95453.94;;;2.01;51.74
74921;BME280;63483;47.384;8.860;2023-11-18T03:22:49;95456.41;;;2.02;51.45
74921;BME280;63483;47.384;8.860;2023-11-18T03:25:15;95464.84;;;2.04;51.48
74921;BME280;63483;47.384;8.860;2023-11-18T03:27:42;95465.06;;;2.01;50.96
74921;BME280;63483;47.384;8.860;2023-11-18T03:30:08;95466.75;;;2.02;51.24
74921;BME280;63483;47.384;8.860;2023-11-18T03:32:35;95457.22;;;2.03;51.50
74921;BME280;63483;47.384;8.860;2023-11-18T03:35:05;95458.88;;;2.04;51.23
74921;BME280;63483;47.384;8.860;2023-11-18T03:37:40;95456.19;;;2.05;51.22
74921;BME280;63483;47.384;8.860;2023-11-18T03:40:10;95451.84;;;2.06;51.04
74921;BME280;63483;47.384;8.860;2023-11-18T03:42:37;95445.84;;;2.05;51.41
74921;BME280;63483;47.384;8.860;2023-11-18T03:45:02;95443.16;;;2.07;51.40
74921;BME280;63483;47.384;8.860;2023-11-18T03:47:28;95440.56;;;2.07;50.86
74921;BME280;63483;47.384;8.860;2023-11-18T03:49:55;95444.09;;;2.06;50.99
74921;BME280;63483;47.384;8.860;2023-11-18T03:52:20;95451.84;;;2.06;50.92
74921;BME280;63483;47.384;8.860;2023-11-18T03:54:46;95446.56;;;2.07;50.78
74921;BME280;63483;47.384;8.860;2023-11-18T03:57:11;95443.97;;;2.07;51.25
74921;BME280;63483;47.384;8.860;2023-11-18T03:59:39;95444.81;;;2.08;50.96
74921;BME280;63483;47.384;8.860;2023-11-18T04:02:04;95451.84;;;2.06;51.04
74921;BME280;63483;47.384;8.860;2023-11-18T04:04:29;95446.88;;;2.03;51.05
74921;BME280;63483;47.384;8.860;2023-11-18T04:06:55;95443.47;;;2.02;50.93
74921;BME280;63483;47.384;8.860;2023-11-18T04:09:20;95438.44;;;2.01;50.68
74921;BME280;63483;47.384;8.860;2023-11-18T04:11:46;95453.22;;;1.99;51.17
74921;BME280;63483;47.384;8.860;2023-11-18T04:14:11;95448.97;;;1.98;50.86
74921;BME280;63483;47.384;8.860;2023-11-18T04:16:38;95452.47;;;1.96;50.80
74921;BME280;63483;47.384;8.860;2023-11-18T04:19:04;95456.00;;;1.95;50.56
74921;BME280;63483;47.384;8.860;2023-11-18T04:21:29;95449.19;;;1.94;51.14
74921;BME280;63483;47.384;8.860;2023-11-18T04:23:54;95454.34;;;1.94;50.80
74921;BME280;63483;47.384;8.860;2023-11-18T04:26:20;95441.44;;;1.94;50.71
74921;BME280;63483;47.384;8.860;2023-11-18T04:28:45;95444.25;;;1.91;50.43
74921;BME280;63483;47.384;8.860;2023-11-18T04:31:10;95437.84;;;1.84;50.72
74921;BME280;63483;47.384;8.860;2023-11-18T04:33:36;95451.66;;;1.32;45.08
74921;BME280;63483;47.384;8.860;2023-11-18T04:36:01;95442.22;;;0.79;39.75
74921;BME280;63483;47.384;8.860;2023-11-18T04:38:28;95438.94;;;0.50;41.42
74921;BME280;63483;47.384;8.860;2023-11-18T04:40:53;95438.88;;;0.37;45.56
74921;BME280;63483;47.384;8.860;2023-11-18T04:43:20;95445.97;;;0.61;49.84
74921;BME280;63483;47.384;8.860;2023-11-18T04:45:45;95445.63;;;-0.17;53.63
74921;BME280;63483;47.384;8.860;2023-11-18T04:48:11;95444.72;;;-0.88;49.17
74921;BME280;63483;47.384;8.860;2023-11-18T04:50:39;95458.13;;;-1.43;49.43
74921;BME280;63483;47.384;8.860;2023-11-18T04:53:04;95453.53;;;-1.84;49.96
74921;BME280;63483;47.384;8.860;2023-11-18T04:55:33;95459.66;;;-2.03;51.25
74921;BME280;63483;47.384;8.860;2023-11-18T04:57:58;95459.59;;;-2.17;51.76
74921;BME280;63483;47.384;8.860;2023-11-18T05:00:24;95466.00;;;-2.42;50.63
74921;BME280;63483;47.384;8.860;2023-11-18T05:02:49;95467.69;;;-2.58;50.37
74921;BME280;63483;47.384;8.860;2023-11-18T05:05:15;95460.84;;;-2.75;49.93
74921;BME280;63483;47.384;8.860;2023-11-18T05:07:41;95455.53;;;-2.88;50.13
74921;BME280;63483;47.384;8.860;2023-11-18T05:10:08;95458.75;;;-2.85;49.41
74921;BME280;63483;47.384;8.860;2023-11-18T05:12:33;95448.66;;;-2.88;49.49
74921;BME280;63483;47.384;8.860;2023-11-18T05:14:59;95451.84;;;-3.00;49.07
74921;BME280;63483;47.384;8.860;2023-11-18T05:17:26;95454.75;;;-2.90;48.57
74921;BME280;63483;47.384;8.860;2023-11-18T05:19:52;95453.25;;;-2.95;48.68
74921;BME280;63483;47.384;8.860;2023-11-18T05:22:18;95449.56;;;-2.89;46.52
74921;BME280;63483;47.384;8.860;2023-11-18T05:24:44;95444.47;;;-2.73;46.93
74921;BME280;63483;47.384;8.860;2023-11-18T05:27:09;95435.78;;;-2.53;46.70
74921;BME280;63483;47.384;8.860;2023-11-18T05:29:34;95432.25;;;-2.18;46.53
74921;BME280;63483;47.384;8.860;2023-11-18T05:32:00;95428.84;;;-2.03;44.33
74921;BME280;63483;47.384;8.860;2023-11-18T05:34:25;95423.53;;;-2.00;45.56
74921;BME280;63483;47.384;8.860;2023-11-18T05:36:50;95429.41;;;-1.66;50.96
74921;BME280;63483;47.384;8.860;2023-11-18T05:39:23;95420.38;;;-1.27;50.97
74921;BME280;63483;47.384;8.860;2023-11-18T05:41:53;95434.97;;;-2.21;57.92
74921;BME280;63483;47.384;8.860;2023-11-18T05:44:21;95428.78;;;-2.67;53.05
74921;BME280;63483;47.384;8.860;2023-11-18T05:46:56;95430.34;;;-2.98;53.59
74921;BME280;63483;47.384;8.860;2023-11-18T05:49:21;95422.44;;;-3.10;54.84
74921;BME280;63483;47.384;8.860;2023-11-18T05:51:47;95430.06;;;-3.26;52.96
74921;BME280;63483;47.384;8.860;2023-11-18T05:54:13;95426.91;;;-3.49;52.62
74921;BME280;63483;47.384;8.860;2023-11-18T05:56:38;95431.25;;;-3.51;52.63
74921;BME280;63483;47.384;8.860;2023-11-18T05:59:03;95435.75;;;-3.74;52.28
74921;BME280;63483;47.384;8.860;2023-11-18T06:01:29;95438.56;;;-3.61;53.03
74921;BME280;63483;47.384;8.860;2023-11-18T06:03:55;95428.25;;;-3.59;51.58
74921;BME280;63483;47.384;8.860;2023-11-18T06:06:22;95432.53;;;-3.60;51.95
74921;BME280;63483;47.384;8.860;2023-11-18T06:08:47;95421.63;;;-3.28;53.85
74921;BME280;63483;47.384;8.860;2023-11-18T06:11:14;95419.19;;;-2.97;53.08
74921;BME280;63483;47.384;8.860;2023-11-18T06:13:44;95410.84;;;-2.84;51.61
74921;BME280;63483;47.384;8.860;2023-11-18T06:18:46;95428.22;;;-2.89;49.00
74921;BME280;63483;47.384;8.860;2023-11-18T06:21:15;95424.16;;;-2.93;47.50
74921;BME280;63483;47.384;8.860;2023-11-18T06:23:42;95432.53;;;-2.90;45.35
74921;BME280;63483;47.384;8.860;2023-11-18T06:26:08;95425.25;;;-2.82;46.40
74921;BME280;63483;47.384;8.860;2023-11-18T06:28:36;95424.13;;;-2.76;46.79
74921;BME280;63483;47.384;8.860;2023-11-18T06:31:02;95425.59;;;-2.54;45.46
74921;BME280;63483;47.384;8.860;2023-11-18T06:33:27;95439.94;;;-2.18;47.99
74921;BME280;63483;47.384;8.860;2023-11-18T06:35:55;95430.44;;;-1.84;49.85
74921;BME280;63483;47.384;8.860;2023-11-18T06:38:21;95431.28;;;-1.53;52.99
74921;BME280;63483;47.384;8.860;2023-11-18T06:40:47;95435.88;;;-1.28;54.06
74921;BME280;63483;47.384;8.860;2023-11-18T06:43:17;95438.63;;;-1.01;53.73
74921;BME280;63483;47.384;8.860;2023-11-18T06:45:44;95427.19;;;-0.81;54.20
74921;BME280;63483;47.384;8.860;2023-11-18T06:48:09;95421.78;;;-0.62;53.85
74921;BME280;63483;47.384;8.860;2023-11-18T06:50:34;95426.72;;;-0.44;54.34
74921;BME280;63483;47.384;8.860;2023-11-18T06:53:00;95437.91;;;-0.31;53.88
74921;BME280;63483;47.384;8.860;2023-11-18T06:55:26;95450.06;;;-0.19;53.22
74921;BME280;63483;47.384;8.860;2023-11-18T06:57:52;95454.56;;;-0.08;53.80
74921;BME280;63483;47.384;8.860;2023-11-18T07:00:20;95447.09;;;0.02;53.19
74921;BME280;63483;47.384;8.860;2023-11-18T07:02:47;95451.78;;;0.10;53.01
74921;BME280;63483;47.384;8.860;2023-11-18T07:05:12;95446.88;;;0.19;53.10
74921;BME280;63483;47.384;8.860;2023-11-18T07:07:40;95444.00;;;0.24;52.93
74921;BME280;63483;47.384;8.860;2023-11-18T07:10:05;95444.44;;;0.31;52.67
74921;BME280;63483;47.384;8.860;2023-11-18T07:12:32;95433.72;;;0.37;52.36
74921;BME280;63483;47.384;8.860;2023-11-18T07:14:59;95438.53;;;0.43;52.91
74921;BME280;63483;47.384;8.860;2023-11-18T07:17:26;95438.09;;;-0.34;53.64
74921;BME280;63483;47.384;8.860;2023-11-18T07:19:51;95449.19;;;-1.22;49.50
74921;BME280;63483;47.384;8.860;2023-11-18T07:22:16;95449.97;;;-1.98;49.38
74921;BME280;63483;47.384;8.860;2023-11-18T07:24:41;95453.66;;;-2.51;49.82
74921;BME280;63483;47.384;8.860;2023-11-18T07:27:08;95447.22;;;-2.93;50.88
74921;BME280;63483;47.384;8.860;2023-11-18T07:29:36;95458.84;;;-3.21;51.51
74921;BME280;63483;47.384;8.860;2023-11-18T07:32:02;95454.78;;;-3.43;52.21
74921;BME280;63483;47.384;8.860;2023-11-18T07:34:33;95473.50;;;-3.60;51.60
74921;BME280;63483;47.384;8.860;2023-11-18T07:36:59;95462.16;;;-3.73;52.39
74921;BME280;63483;47.384;8.860;2023-11-18T07:39:24;95465.16;;;-3.83;52.39
74921;BME280;63483;47.384;8.860;2023-11-18T07:42:07;95460.88;;;-3.82;52.50
74921;BME280;63483;47.384;8.860;2023-11-18T07:44:33;95467.13;;;-3.88;52.65
74921;BME280;63483;47.384;8.860;2023-11-18T07:46:59;95469.63;;;-3.86;51.86
74921;BME280;63483;47.384;8.860;2023-11-18T07:49:24;95461.94;;;-3.86;51.99
74921;BME280;63483;47.384;8.860;2023-11-18T07:51:51;95467.59;;;-3.79;51.40
74921;BME280;63483;47.384;8.860;2023-11-18T07:54:16;95465.38;;;-3.68;50.87
74921;BME280;63483;47.384;8.860;2023-11-18T07:56:43;95459.28;;;-3.48;49.49
74921;BME280;63483;47.384;8.860;2023-11-18T07:59:11;95461.72;;;-3.27;48.96
74921;BME280;63483;47.384;8.860;2023-11-18T08:01:41;95452.81;;;-3.03;47.55
74921;BME280;63483;47.384;8.860;2023-11-18T08:04:09;95441.34;;;-2.78;46.74
74921;BME280;63483;47.384;8.860;2023-11-18T08:06:35;95448.25;;;-2.80;47.59
74921;BME280;63483;47.384;8.860;2023-11-18T08:09:00;95455.13;;;-2.63;48.44
74921;BME280;63483;47.384;8.860;2023-11-18T08:11:25;95461.38;;;-2.19;50.11
74921;BME280;63483;47.384;8.860;2023-11-18T08:13:51;95462.47;;;-1.76;53.38
74921;BME280;63483;47.384;8.860;2023-11-18T08:16:16;95454.44;;;-1.39;53.34
74921;BME280;63483;47.384;8.860;2023-11-18T08:18:42;95451.88;;;-2.17;61.13
74921;BME280;63483;47.384;8.860;2023-11-18T08:21:07;95446.16;;;-2.72;55.42
74921;BME280;63483;47.384;8.860;2023-11-18T08:23:32;95455.22;;;-3.17;55.43
74921;BME280;63483;47.384;8.860;2023-11-18T08:25:58;95457.25;;;-3.41;55.25
74921;BME280;63483;47.384;8.860;2023-11-18T08:28:24;95454.97;;;-3.65;54.90
74921;BME280;63483;47.384;8.860;2023-11-18T08:30:49;95463.28;;;-3.79;55.10
74921;BME280;63483;47.384;8.860;2023-11-18T08:33:16;95460.28;;;-3.87;55.46
74921;BME280;63483;47.384;8.860;2023-11-18T08:35:42;95458.44;;;-3.85;55.74
74921;BME280;63483;47.384;8.860;2023-11-18T08:38:07;95467.88;;;-3.86;56.36
74921;BME280;63483;47.384;8.860;2023-11-18T08:40:33;95457.16;;;-3.57;56.34
74921;BME280;63483;47.384;8.860;2023-11-18T08:42:59;95459.38;;;-3.32;55.13
74921;BME280;63483;47.384;8.860;2023-11-18T08:45:27;95454.88;;;-3.27;54.17
74921;BME280;63483;47.384;8.860;2023-11-18T08:47:55;95456.97;;;-3.35;54.46
74921;BME280;63483;47.384;8.860;2023-11-18T08:50:21;95453.88;;;-3.24;53.13
74921;BME280;63483;47.384;8.860;2023-11-18T08:52:49;95453.88;;;-3.24;53.96
74921;BME280;63483;47.384;8.860;2023-11-18T08:55:18;95445.13;;;-3.03;53.13
74921;BME280;63483;47.384;8.860;2023-11-18T08:57:48;95455.22;;;-2.82;51.79
74921;BME280;63483;47.384;8.860;2023-11-18T09:00:24;95450.97;;;-2.66;51.48
74921;BME280;63483;47.384;8.860;2023-11-18T09:03:25;95442.56;;;-2.36;52.62
74921;BME280;63483;47.384;8.860;2023-11-18T09:05:54;95443.94;;;-1.97;52.18
74921;BME280;63483;47.384;8.860;2023-11-18T09:08:31;95429.28;;;-1.48;56.25
74921;BME280;63483;47.384;8.860;2023-11-18T09:11:09;95423.19;;;-1.01;59.09
74921;BME280;63483;47.384;8.860;2023-11-18T09:13:45;95425.25;;;-0.63;58.72
74921;BME280;63483;47.384;8.860;2023-11-18T09:16:13;95412.66;;;-0.24;60.18
74921;BME280;63483;47.384;8.860;2023-11-18T09:18:42;95408.69;;;0.12;60.89
74921;BME280;63483;47.384;8.860;2023-11-18T09:21:10;95418.31;;;0.50;63.68
74921;BME280;63483;47.384;8.860;2023-11-18T09:23:43;95411.78;;;0.84;61.02
74921;BME280;63483;47.384;8.860;2023-11-18T09:26:09;95413.06;;;1.04;61.00
74921;BME280;63483;47.384;8.860;2023-11-18T09:28:36;95414.13;;;1.27;61.73
74921;BME280;63483;47.384;8.860;2023-11-18T09:31:02;95402.13;;;1.52;60.38
74921;BME280;63483;47.384;8.860;2023-11-18T09:33:31;95400.88;;;1.71;60.05
74921;BME280;63483;47.384;8.860;2023-11-18T09:36:01;95399.09;;;1.84;59.81
74921;BME280;63483;47.384;8.860;2023-11-18T09:38:31;95397.78;;;2.03;59.83
74921;BME280;63483;47.384;8.860;2023-11-18T09:40:58;95395.66;;;2.21;57.64
74921;BME280;63483;47.384;8.860;2023-11-18T09:43:36;95392.19;;;2.33;57.62
74921;BME280;63483;47.384;8.860;2023-11-18T09:46:08;95389.16;;;2.39;56.40
74921;BME280;63483;47.384;8.860;2023-11-18T09:51:06;95390.28;;;2.48;57.07
74921;BME280;63483;47.384;8.860;2023-11-18T09:53:37;95402.53;;;2.57;56.86
74921;BME280;63483;47.384;8.860;2023-11-18T09:56:23;95408.09;;;2.64;56.82
74921;BME280;63483;47.384;8.860;2023-11-18T09:59:18;95411.25;;;2.67;56.44
74921;BME280;63483;47.384;8.860;2023-11-18T10:01:51;95416.44;;;2.67;56.92
74921;BME280;63483;47.384;8.860;2023-11-18T10:04:19;95415.34;;;2.35;58.20
74921;BME280;63483;47.384;8.860;2023-11-18T10:06:46;95412.03;;;2.32;57.96
74921;BME280;63483;47.384;8.860;2023-11-18T10:09:12;95409.94;;;2.62;57.37
74921;BME280;63483;47.384;8.860;2023-11-18T10:11:42;95404.00;;;2.73;56.65
74921;BME280;63483;47.384;8.860;2023-11-18T10:14:08;95406.78;;;2.58;57.62
74921;BME280;63483;47.384;8.860;2023-11-18T10:16:34;95394.34;;;2.39;57.93
74921;BME280;63483;47.384;8.860;2023-11-18T10:19:01;95396.13;;;2.39;57.39
74921;BME280;63483;47.384;8.860;2023-11-18T10:21:37;95395.97;;;2.64;56.91
74921;BME280;63483;47.384;8.860;2023-11-18T10:24:05;95391.66;;;2.76;56.94
74921;BME280;63483;47.384;8.860;2023-11-18T10:26:37;95386.59;;;2.75;56.95
74921;BME280;63483;47.384;8.860;2023-11-18T10:29:03;95387.91;;;2.92;56.47
74921;BME280;63483;47.384;8.860;2023-11-18T10:31:33;95391.59;;;3.00;56.43
74921;BME280;63483;47.384;8.860;2023-11-18T10:34:01;95401.03;;;3.13;55.55
74921;BME280;63483;47.384;8.860;2023-11-18T10:36:26;95399.84;;;3.17;55.41
74921;BME280;63483;47.384;8.860;2023-11-18T10:38:52;95399.41;;;3.23;55.55
74921;BME280;63483;47.384;8.860;2023-11-18T10:41:21;95399.66;;;3.31;55.06
74921;BME280;63483;47.384;8.860;2023-11-18T10:43:46;95392.16;;;3.40;54.45
74921;BME280;63483;47.384;8.860;2023-11-18T10:46:14;95395.44;;;3.42;54.74
74921;BME280;63483;47.384;8.860;2023-11-18T10:48:50;95387.09;;;3.49;54.78
74921;BME280;63483;47.384;8.860;2023-11-18T10:51:20;95383.81;;;3.47;54.80
74921;BME280;63483;47.384;8.860;2023-11-18T10:53:51;95385.19;;;3.63;54.13
74921;BME280;63483;47.384;8.860;2023-11-18T10:56:29;95393.44;;;3.68;54.52
74921;BME280;63483;47.384;8.860;2023-11-18T10:59:05;95387.91;;;3.72;54.23
74921;BME280;63483;47.384;8.860;2023-11-18T11:01:35;95396.63;;;3.71;53.14
74921;BME280;63483;47.384;8.860;2023-11-18T11:04:08;95399.94;;;3.74;53.78
74921;BME280;63483;47.384;8.860;2023-11-18T11:06:36;95389.91;;;3.80;53.53
74921;BME280;63483;47.384;8.860;2023-11-18T11:09:07;95402.81;;;2.65;51.12
74921;BME280;63483;47.384;8.860;2023-11-18T11:11:46;95398.00;;;2.00;52.31
74921;BME280;63483;47.384;8.860;2023-11-18T11:14:14;95399.91;;;2.22;54.16
74921;BME280;63483;47.384;8.860;2023-11-18T11:17:05;95396.59;;;2.20;52.64
74921;BME280;63483;47.384;8.860;2023-11-18T11:19:59;95401.03;;;1.81;52.94
74921;BME280;63483;47.384;8.860;2023-11-18T11:23:01;95414.72;;;1.18;51.18
74921;BME280;63483;47.384;8.860;2023-11-18T11:28:11;95407.59;;;0.43;51.47
74921;BME280;63483;47.384;8.860;2023-11-18T11:30:55;95399.91;;;0.29;50.10
74921;BME280;63483;47.384;8.860;2023-11-18T11:33:33;95399.78;;;0.03;51.20
74921;BME280;63483;47.384;8.860;2023-11-18T11:36:07;95399.25;;;0.12;52.21
74921;BME280;63483;47.384;8.860;2023-11-18T11:38:39;95406.41;;;0.07;51.60
74921;BME280;63483;47.384;8.860;2023-11-18T11:41:05;95410.53;;;0.37;53.00
74921;BME280;63483;47.384;8.860;2023-11-18T11:43:34;95413.97;;;0.37;51.90
74921;BME280;63483;47.384;8.860;2023-11-18T11:46:01;95408.59;;;0.41;49.85
74921;BME280;63483;47.384;8.860;2023-11-18T11:48:29;95411.84;;;0.30;48.53
74921;BME280;63483;47.384;8.860;2023-11-18T11:51:11;95402.66;;;0.53;50.02
74921;BME280;63483;47.384;8.860;2023-11-18T11:53:42;95401.03;;;0.65;48.30
74921;BME280;63483;47.384;8.860;2023-11-18T11:56:11;95384.56;;;0.93;49.90
74921;BME280;63483;47.384;8.860;2023-11-18T11:58:41;95383.75;;;1.31;50.76
74921;BME280;63483;47.384;8.860;2023-11-18T12:01:36;95378.97;;;1.76;53.29
74921;BME280;63483;47.384;8.860;2023-11-18T12:04:08;95368.72;;;2.12;54.83
74921;BME280;63483;47.384;8.860;2023-11-18T12:06:42;95367.91;;;2.47;55.54
74921;BME280;63483;47.384;8.860;2023-11-18T12:09:09;95369.81;;;2.80;54.90
74921;BME280;63483;47.384;8.860;2023-11-18T12:11:36;95363.63;;;3.06;54.80
74921;BME280;63483;47.384;8.860;2023-11-18T12:14:08;95374.22;;;3.25;53.25
74921;BME280;63483;47.384;8.860;2023-11-18T12:17:05;95371.69;;;3.36;53.72
74921;BME280;63483;47.384;8.860;2023-11-18T12:19:35;95375.09;;;3.48;52.85
74921;BME280;63483;47.384;8.860;2023-11-18T12:22:10;95370.13;;;3.57;51.73
74921;BME280;63483;47.384;8.860;2023-11-18T12:24:43;95374.94;;;3.61;51.83
74921;BME280;63483;47.384;8.860;2023-11-18T12:27:09;95376.13;;;3.68;51.72
74921;BME280;63483;47.384;8.860;2023-11-18T12:29:41;95364.47;;;3.74;51.36
74921;BME280;63483;47.384;8.860;2023-11-18T12:32:09;95354.47;;;3.81;51.37
74921;BME280;63483;47.384;8.860;2023-11-18T12:34:53;95346.19;;;3.87;51.00
74921;BME280;63483;47.384;8.860;2023-11-18T12:37:50;95346.66;;;3.92;50.77
74921;BME280;63483;47.384;8.860;2023-11-18T12:43:03;95357.25;;;4.00;50.87
74921;BME280;63483;47.384;8.860;2023-11-18T12:48:06;95366.19;;;4.07;50.97
74921;BME280;63483;47.384;8.860;2023-11-18T12:50:38;95358.03;;;4.12;51.00
74921;BME280;63483;47.384;8.860;2023-11-18T12:53:05;95358.59;;;4.16;51.25
74921;BME280;63483;47.384;8.860;2023-11-18T12:55:32;95363.53;;;4.19;50.85
74921;BME280;63483;47.384;8.860;2023-11-18T12:58:00;95359.91;;;4.21;50.52
74921;BME280;63483;47.384;8.860;2023-11-18T13:00:25;95366.75;;;4.22;50.27
74921;BME280;63483;47.384;8.860;2023-11-18T13:02:55;95354.59;;;4.23;49.55
74921;BME280;63483;47.384;8.860;2023-11-18T13:05:23;95353.91;;;4.21;48.76
74921;BME280;63483;47.384;8.860;2023-11-18T13:07:48;95350.47;;;4.20;49.03
74921;BME280;63483;47.384;8.860;2023-11-18T13:10:15;95345.53;;;4.17;47.86
74921;BME280;63483;47.384;8.860;2023-11-18T13:12:42;95349.66;;;4.20;47.63
74921;BME280;63483;47.384;8.860;2023-11-18T13:15:09;95347.19;;;4.18;46.68
74921;BME280;63483;47.384;8.860;2023-11-18T13:17:34;95346.94;;;4.21;47.75
74921;BME280;63483;47.384;8.860;2023-11-18T13:20:11;95337.25;;;4.23;46.58
74921;BME280;63483;47.384;8.860;2023-11-18T13:22:38;95346.13;;;4.21;46.60
74921;BME280;63483;47.384;8.860;2023-11-18T13:25:04;95337.97;;;4.25;46.93
74921;BME280;63483;47.384;8.860;2023-11-18T13:27:30;95338.66;;;4.28;46.96